createdAt,value
2018-01-23T00:00:44.804Z,1009.28
2018-01-23T00:01:44.825Z,1009.32
2018-01-23T00:02:44.837Z,1009.31
2018-01-23T00:03:44.844Z,1009.31
2018-01-23T00:04:44.864Z,1009.26
2018-01-23T00:05:44.877Z,1009.25
2018-01-23T00:06:44.884Z,1009.25
2018-01-23T00:07:44.898Z,1009.25
2018-01-23T00:08:44.910Z,1009.24
2018-01-23T00:09:44.933Z,1009.3
2018-01-23T00:10:44.938Z,1009.3
2018-01-23T00:11:44.951Z,1009.35
2018-01-23T00:12:44.964Z,1009.37
2018-01-23T00:13:44.977Z,1009.41
2018-01-23T00:14:44.997Z,1009.43
2018-01-23T00:15:45.006Z,1009.37
2018-01-23T00:16:45.064Z,1009.37
2018-01-23T00:18:45.049Z,1009.35
2018-01-23T00:19:45.058Z,1009.37
2018-01-23T00:20:45.069Z,1009.37
2018-01-23T00:21:45.085Z,1009.38
2018-01-23T00:22:45.097Z,1009.39
2018-01-23T00:23:45.109Z,1009.43
2018-01-23T00:24:45.122Z,1009.44
2018-01-23T00:25:45.137Z,1009.52
2018-01-23T00:26:45.155Z,1009.58
2018-01-23T00:27:45.162Z,1009.63
2018-01-23T00:28:45.175Z,1009.66
2018-01-23T00:29:45.223Z,1009.72
2018-01-23T00:30:45.202Z,1009.78
2018-01-23T00:31:45.216Z,1009.8
2018-01-23T00:32:45.230Z,1009.9
2018-01-23T00:34:45.264Z,1010
2018-01-23T00:35:45.275Z,1010.04
2018-01-23T00:36:45.287Z,1010.07
2018-01-23T00:37:45.302Z,1010.11
2018-01-23T00:38:45.314Z,1010.16
2018-01-23T00:39:45.322Z,1010.16
2018-01-23T00:40:45.335Z,1010.19
2018-01-23T00:41:45.350Z,1010.23
2018-01-23T00:42:45.362Z,1010.23
2018-01-23T00:43:45.382Z,1010.26
2018-01-23T00:44:45.390Z,1010.28
2018-01-23T00:45:45.402Z,1010.29
2018-01-23T00:46:45.416Z,1010.33
2018-01-23T00:47:45.430Z,1010.36
2018-01-23T00:48:45.450Z,1010.35
2018-01-23T00:50:45.470Z,1010.39
2018-01-23T00:51:45.482Z,1010.45
2018-01-23T00:52:45.503Z,1010.46
2018-01-23T00:53:45.510Z,1010.45
2018-01-23T00:54:45.523Z,1010.45
2018-01-23T00:55:45.537Z,1010.45
2018-01-23T00:56:45.549Z,1010.44
2018-01-23T00:57:45.563Z,1010.44
2018-01-23T00:58:45.577Z,1010.43
2018-01-23T00:59:45.596Z,1010.45
2018-01-23T01:00:45.602Z,1010.42
2018-01-23T01:01:45.623Z,1010.38
2018-01-23T01:02:45.731Z,1010.37
2018-01-23T01:03:45.651Z,1010.28
2018-01-23T01:04:45.662Z,1010.18
2018-01-23T01:06:45.683Z,1010.2
2018-01-23T01:07:45.705Z,1010.21
2018-01-23T01:08:45.717Z,1010.24
2018-01-23T01:09:45.724Z,1010.24
2018-01-23T01:10:45.744Z,1010.25
2018-01-23T01:11:45.756Z,1010.22
2018-01-23T01:12:45.769Z,1010.24
2018-01-23T01:13:45.777Z,1010.2
2018-01-23T01:14:45.790Z,1010.22
2018-01-23T01:15:45.804Z,1010.26
2018-01-23T01:16:45.817Z,1010.27
2018-01-23T01:17:45.830Z,1010.26
2018-01-23T01:18:45.851Z,1010.26
2018-01-23T01:19:45.857Z,1010.27
2018-01-23T01:21:45.888Z,1010.31
2018-01-23T01:22:45.897Z,1010.32
2018-01-23T01:23:45.911Z,1010.39
2018-01-23T01:24:45.925Z,1010.39
2018-01-23T01:25:45.945Z,1010.43
2018-01-23T01:26:45.957Z,1010.43
2018-01-23T01:27:45.972Z,1010.52
2018-01-23T01:28:45.985Z,1010.53
2018-01-23T01:29:46.010Z,1010.57
2018-01-23T01:30:46.006Z,1010.56
2018-01-23T01:31:46.024Z,1010.56
2018-01-23T01:32:46.033Z,1010.56
2018-01-23T01:33:46.044Z,1010.6
2018-01-23T01:34:46.069Z,1010.66
2018-01-23T01:35:46.079Z,1010.72
2018-01-23T01:36:46.097Z,1010.77
2018-01-23T01:37:46.105Z,1010.77
2018-01-23T01:38:46.113Z,1010.79
2018-01-23T01:39:46.132Z,1010.83
2018-01-23T01:40:46.139Z,1010.84
2018-01-23T01:41:46.159Z,1010.86
2018-01-23T01:42:46.172Z,1010.87
2018-01-23T01:43:46.180Z,1010.86
2018-01-23T01:44:46.191Z,1010.85
2018-01-23T01:45:46.205Z,1010.88
2018-01-23T01:46:46.223Z,1010.87
2018-01-23T01:47:46.243Z,1010.92
2018-01-23T01:48:46.253Z,1010.96
2018-01-23T01:49:46.260Z,1011.03
2018-01-23T01:50:46.279Z,1011.1
2018-01-23T01:51:46.292Z,1011.18
2018-01-23T01:53:46.319Z,1011.29
2018-01-23T01:54:46.327Z,1011.3
2018-01-23T01:55:46.340Z,1011.27
2018-01-23T01:56:46.359Z,1011.28
2018-01-23T01:57:46.369Z,1011.25
2018-01-23T01:58:46.386Z,1011.2
2018-01-23T01:59:46.400Z,1011.17
2018-01-23T02:00:46.406Z,1011.15
2018-01-23T02:01:46.420Z,1011.16
2018-01-23T02:02:46.439Z,1011.24
2018-01-23T02:03:46.447Z,1011.24
2018-01-23T02:04:46.468Z,1011.26
2018-01-23T02:05:46.482Z,1011.25
2018-01-23T02:06:46.487Z,1011.23
2018-01-23T02:07:46.507Z,1011.21
2018-01-23T02:09:46.529Z,1011.18
2018-01-23T02:10:46.548Z,1011.2
2018-01-23T02:11:46.562Z,1011.17
2018-01-23T02:12:46.569Z,1011.21
2018-01-23T02:13:46.588Z,1011.2
2018-01-23T02:14:46.596Z,1011.24
2018-01-23T02:15:46.619Z,1011.3
2018-01-23T02:16:46.623Z,1011.32
2018-01-23T02:17:46.642Z,1011.3
2018-01-23T02:18:46.650Z,1011.29
2018-01-23T02:19:46.663Z,1011.29
2018-01-23T02:20:46.677Z,1011.3
2018-01-23T02:21:46.690Z,1011.3
2018-01-23T02:22:46.703Z,1011.32
2018-01-23T02:23:46.717Z,1011.36
2018-01-23T02:25:46.743Z,1011.42
2018-01-23T02:26:46.758Z,1011.45
2018-01-23T02:27:46.770Z,1011.49
2018-01-23T02:28:46.790Z,1011.52
2018-01-23T02:29:46.804Z,1011.56
2018-01-23T02:30:46.812Z,1011.54
2018-01-23T02:31:46.826Z,1011.58
2018-01-23T02:32:46.844Z,1011.62
2018-01-23T02:33:46.851Z,1011.66
2018-01-23T02:34:46.872Z,1011.69
2018-01-23T02:35:46.878Z,1011.73
2018-01-23T02:36:46.891Z,1011.68
2018-01-23T02:37:46.908Z,1011.69
2018-01-23T02:38:46.919Z,1011.67
2018-01-23T02:39:46.931Z,1011.71
2018-01-23T02:41:46.959Z,1011.67
2018-01-23T02:42:46.980Z,1011.68
2018-01-23T02:43:46.985Z,1011.66
2018-01-23T02:44:47.016Z,1011.67
2018-01-23T02:45:47.013Z,1011.68
2018-01-23T02:46:47.033Z,1011.66
2018-01-23T02:47:47.047Z,1011.7
2018-01-23T02:48:47.059Z,1011.68
2018-01-23T02:49:47.067Z,1011.67
2018-01-23T02:50:47.085Z,1011.74
2018-01-23T02:51:47.094Z,1011.67
2018-01-23T02:52:47.114Z,1011.68
2018-01-23T02:53:47.125Z,1011.64
2018-01-23T02:54:47.135Z,1011.66
2018-01-23T02:56:47.176Z,1011.66
2018-01-23T02:57:47.175Z,1011.66
2018-01-23T02:58:47.196Z,1011.73
2018-01-23T02:59:47.203Z,1011.72
2018-01-23T03:00:47.217Z,1011.73
2018-01-23T03:01:47.236Z,1011.77
2018-01-23T03:02:47.244Z,1011.75
2018-01-23T03:03:47.263Z,1011.74
2018-01-23T03:04:47.270Z,1011.78
2018-01-23T03:05:47.285Z,1011.75
2018-01-23T03:06:47.397Z,1011.75
2018-01-23T03:07:47.312Z,1011.76
2018-01-23T03:08:47.323Z,1011.77
2018-01-23T03:09:47.344Z,1011.77
2018-01-23T03:10:47.352Z,1011.78
2018-01-23T03:11:47.366Z,1011.82
2018-01-23T03:12:47.378Z,1011.88
2018-01-23T03:13:47.393Z,1011.89
2018-01-23T03:14:47.422Z,1011.87
2018-01-23T03:15:47.424Z,1011.87
2018-01-23T03:16:47.432Z,1011.85
2018-01-23T03:17:47.446Z,1011.89
2018-01-23T03:18:47.463Z,1011.9
2018-01-23T03:19:47.480Z,1011.88
2018-01-23T03:20:47.486Z,1011.97
2018-01-23T03:21:47.500Z,1011.93
2018-01-23T03:22:47.514Z,1011.98
2018-01-23T03:23:47.526Z,1012.04
2018-01-23T03:24:47.542Z,1012.09
2018-01-23T03:25:47.560Z,1012.1
2018-01-23T03:26:47.567Z,1012.13
2018-01-23T03:28:47.596Z,1012.16
2018-01-23T03:29:47.609Z,1012.18
2018-01-23T03:30:47.622Z,1012.16
2018-01-23T03:31:47.635Z,1012.18
2018-01-23T03:32:47.650Z,1012.21
2018-01-23T03:33:47.670Z,1012.16
2018-01-23T03:34:47.677Z,1012.23
2018-01-23T03:35:47.697Z,1012.19
2018-01-23T03:36:47.703Z,1012.17
2018-01-23T03:37:47.724Z,1012.16
2018-01-23T03:38:47.737Z,1012.18
2018-01-23T03:39:47.852Z,1012.2
2018-01-23T03:40:47.764Z,1012.21
2018-01-23T03:41:47.778Z,1012.18
2018-01-23T03:42:47.785Z,1012.21
2018-01-23T03:44:47.813Z,1012.24
2018-01-23T03:45:47.825Z,1012.27
2018-01-23T03:46:47.840Z,1012.22
2018-01-23T03:47:47.854Z,1012.25
2018-01-23T03:48:47.872Z,1012.28
2018-01-23T03:49:47.887Z,1012.23
2018-01-23T03:50:47.894Z,1012.27
2018-01-23T03:51:47.908Z,1012.26
2018-01-23T03:52:47.927Z,1012.23
2018-01-23T03:53:47.936Z,1012.28
2018-01-23T03:54:47.950Z,1012.35
2018-01-23T03:55:47.963Z,1012.38
2018-01-23T03:56:47.977Z,1012.41
2018-01-23T03:57:47.996Z,1012.43
2018-01-23T03:58:48.002Z,1012.43
2018-01-23T04:00:48.036Z,1012.42
2018-01-23T04:01:48.044Z,1012.41
2018-01-23T04:02:48.064Z,1012.43
2018-01-23T04:03:48.070Z,1012.48
2018-01-23T04:04:48.083Z,1012.47
2018-01-23T04:05:48.097Z,1012.53
2018-01-23T04:06:48.116Z,1012.55
2018-01-23T04:07:48.225Z,1012.54
2018-01-23T04:08:48.137Z,1012.62
2018-01-23T04:09:48.163Z,1012.62
2018-01-23T04:10:48.171Z,1012.67
2018-01-23T04:11:48.185Z,1012.7
2018-01-23T04:12:48.193Z,1012.71
2018-01-23T04:13:48.206Z,1012.71
2018-01-23T04:14:48.226Z,1012.73
2018-01-23T04:16:48.246Z,1012.73
2018-01-23T04:17:48.260Z,1012.66
2018-01-23T04:18:48.279Z,1012.69
2018-01-23T04:19:48.287Z,1012.71
2018-01-23T04:20:48.307Z,1012.73
2018-01-23T04:21:48.314Z,1012.78
2018-01-23T04:22:48.336Z,1012.8
2018-01-23T04:23:48.347Z,1012.83
2018-01-23T04:24:48.362Z,1012.87
2018-01-23T04:25:48.369Z,1012.87
2018-01-23T04:26:48.389Z,1012.87
2018-01-23T04:27:48.401Z,1012.88
2018-01-23T04:28:48.409Z,1012.91
2018-01-23T04:29:48.423Z,1012.89
2018-01-23T04:31:48.450Z,1012.9
2018-01-23T04:32:48.571Z,1013
2018-01-23T04:33:48.477Z,1013.01
2018-01-23T04:34:48.547Z,1013.08
2018-01-23T04:35:48.505Z,1013.14
2018-01-23T04:36:48.525Z,1013.13
2018-01-23T04:37:48.531Z,1013.15
2018-01-23T04:38:48.551Z,1013.13
2018-01-23T04:39:48.557Z,1013.15
2018-01-23T04:40:48.585Z,1013.22
2018-01-23T04:41:48.591Z,1013.25
2018-01-23T04:42:48.600Z,1013.26
2018-01-23T04:43:48.612Z,1013.26
2018-01-23T04:44:48.632Z,1013.29
2018-01-23T04:45:48.640Z,1013.28
2018-01-23T04:46:48.657Z,1013.28
2018-01-23T04:47:48.667Z,1013.3
2018-01-23T04:48:48.680Z,1013.33
2018-01-23T04:49:48.693Z,1013.37
2018-01-23T04:50:48.707Z,1013.33
2018-01-23T04:51:48.746Z,1013.35
2018-01-23T04:52:48.735Z,1013.4
2018-01-23T04:53:48.749Z,1013.38
2018-01-23T04:54:48.762Z,1013.35
2018-01-23T04:55:48.775Z,1013.37
2018-01-23T04:56:48.788Z,1013.39
2018-01-23T04:57:48.802Z,1013.41
2018-01-23T04:58:48.915Z,1013.37
2018-01-23T04:59:48.829Z,1013.41
2018-01-23T05:00:48.844Z,1013.41
2018-01-23T05:01:48.857Z,1013.39
2018-01-23T05:03:48.983Z,1013.36
2018-01-23T05:04:48.899Z,1013.32
2018-01-23T05:05:48.911Z,1013.28
2018-01-23T05:06:48.923Z,1013.24
2018-01-23T05:07:48.938Z,1013.26
2018-01-23T05:08:49.051Z,1013.26
2018-01-23T05:09:48.965Z,1013.28
2018-01-23T05:10:48.978Z,1013.25
2018-01-23T05:11:48.992Z,1013.23
2018-01-23T05:12:49.005Z,1013.29
2018-01-23T05:13:49.018Z,1013.36
2018-01-23T05:14:49.033Z,1013.37
2018-01-23T05:15:49.046Z,1013.39
2018-01-23T05:16:49.060Z,1013.45
2018-01-23T05:17:49.073Z,1013.52
2018-01-23T05:19:49.100Z,1013.6
2018-01-23T05:20:49.113Z,1013.65
2018-01-23T05:21:49.127Z,1013.66
2018-01-23T05:22:49.141Z,1013.68
2018-01-23T05:23:49.153Z,1013.73
2018-01-23T05:24:49.168Z,1013.77
2018-01-23T05:25:49.181Z,1013.81
2018-01-23T05:26:49.196Z,1013.82
2018-01-23T05:27:49.218Z,1013.83
2018-01-23T05:28:49.223Z,1013.88
2018-01-23T05:29:49.235Z,1013.87
2018-01-23T05:30:49.250Z,1013.93
2018-01-23T05:31:49.263Z,1014.01
2018-01-23T05:32:49.276Z,1014.04
2018-01-23T05:33:49.290Z,1014.07
2018-01-23T05:35:49.317Z,1014.14
2018-01-23T05:36:49.331Z,1014.1
2018-01-23T05:37:49.344Z,1014.07
2018-01-23T05:38:49.358Z,1014.04
2018-01-23T05:39:49.371Z,1014.01
2018-01-23T05:40:49.386Z,1014
2018-01-23T05:41:49.399Z,1013.97
2018-01-23T05:42:49.411Z,1013.97
2018-01-23T05:43:49.426Z,1014
2018-01-23T05:44:49.439Z,1013.99
2018-01-23T05:45:49.454Z,1014.03
2018-01-23T05:46:49.467Z,1014.09
2018-01-23T05:47:49.479Z,1014.16
2018-01-23T05:48:49.500Z,1014.24
2018-01-23T05:49:49.506Z,1014.28
2018-01-23T05:51:49.535Z,1014.33
2018-01-23T05:52:49.547Z,1014.37
2018-01-23T05:53:49.560Z,1014.4
2018-01-23T05:54:49.576Z,1014.43
2018-01-23T05:55:49.638Z,1014.4
2018-01-23T05:56:49.602Z,1014.43
2018-01-23T05:57:49.615Z,1014.4
2018-01-23T05:58:49.629Z,1014.44
2018-01-23T05:59:49.643Z,1014.51
2018-01-23T06:00:49.655Z,1014.59
2018-01-23T06:01:49.671Z,1014.54
2018-01-23T06:02:49.684Z,1014.56
2018-01-23T06:03:49.698Z,1014.56
2018-01-23T06:04:49.811Z,1014.56
2018-01-23T06:06:49.740Z,1014.5
2018-01-23T06:07:49.752Z,1014.54
2018-01-23T06:08:49.765Z,1014.5
2018-01-23T06:09:49.779Z,1014.48
2018-01-23T06:10:49.894Z,1014.38
2018-01-23T06:11:49.807Z,1014.33
2018-01-23T06:12:49.821Z,1014.4
2018-01-23T06:13:49.833Z,1014.45
2018-01-23T06:14:49.848Z,1014.56
2018-01-23T06:15:49.861Z,1014.64
2018-01-23T06:16:49.876Z,1014.7
2018-01-23T06:17:49.889Z,1014.81
2018-01-23T06:18:49.901Z,1014.81
2018-01-23T06:19:49.914Z,1014.82
2018-01-23T06:20:49.928Z,1014.74
2018-01-23T06:21:49.942Z,1014.64
2018-01-23T06:22:49.955Z,1014.5
2018-01-23T06:23:49.975Z,1014.5
2018-01-23T06:24:49.984Z,1014.52
2018-01-23T06:25:49.998Z,1014.59
2018-01-23T06:26:50.014Z,1014.6
2018-01-23T06:27:50.032Z,1014.68
2018-01-23T06:28:50.039Z,1014.68
2018-01-23T06:29:50.056Z,1014.74
2018-01-23T06:30:50.064Z,1014.84
2018-01-23T06:31:50.079Z,1014.95
2018-01-23T06:32:50.098Z,1015.05
2018-01-23T06:33:50.104Z,1015.11
2018-01-23T06:34:50.118Z,1015.12
2018-01-23T06:35:50.132Z,1015.12
2018-01-23T06:36:50.144Z,1015.06
2018-01-23T06:38:50.172Z,1014.94
2018-01-23T06:39:50.185Z,1014.91
2018-01-23T06:40:50.199Z,1014.98
2018-01-23T06:41:50.212Z,1015.07
2018-01-23T06:42:50.232Z,1015.17
2018-01-23T06:43:50.247Z,1015.21
2018-01-23T06:44:50.260Z,1015.16
2018-01-23T06:45:50.267Z,1015.03
2018-01-23T06:46:50.288Z,1014.97
2018-01-23T06:47:50.294Z,1014.95
2018-01-23T06:48:50.307Z,1014.99
2018-01-23T06:49:50.322Z,1015.02
2018-01-23T06:50:50.340Z,1015.11
2018-01-23T06:51:50.350Z,1015.14
2018-01-23T06:52:50.361Z,1015.1
2018-01-23T06:54:50.389Z,1015.15
2018-01-23T06:55:50.408Z,1015.2
2018-01-23T06:56:50.415Z,1015.28
2018-01-23T06:57:50.430Z,1015.39
2018-01-23T06:58:50.448Z,1015.44
2018-01-23T06:59:50.463Z,1015.5
2018-01-23T07:00:50.470Z,1015.53
2018-01-23T07:01:50.484Z,1015.5
2018-01-23T07:02:50.503Z,1015.56
2018-01-23T07:03:50.516Z,1015.55
2018-01-23T07:04:50.531Z,1015.6
2018-01-23T07:05:50.538Z,1015.68
2018-01-23T07:06:50.550Z,1015.63
2018-01-23T07:07:50.571Z,1015.66
2018-01-23T07:08:50.585Z,1015.67
2018-01-23T07:10:50.611Z,1015.73
2018-01-23T07:11:50.624Z,1015.68
2018-01-23T07:12:50.632Z,1015.63
2018-01-23T07:13:50.645Z,1015.55
2018-01-23T07:14:50.659Z,1015.51
2018-01-23T07:15:50.673Z,1015.47
2018-01-23T07:16:50.694Z,1015.45
2018-01-23T07:17:50.700Z,1015.43
2018-01-23T07:18:50.719Z,1015.47
2018-01-23T07:19:50.734Z,1015.53
2018-01-23T07:20:50.739Z,1015.54
2018-01-23T07:21:50.753Z,1015.51
2018-01-23T07:22:50.774Z,1015.56
2018-01-23T07:23:50.789Z,1015.54
2018-01-23T07:24:50.793Z,1015.59
2018-01-23T07:26:50.822Z,1015.64
2018-01-23T07:27:50.836Z,1015.65
2018-01-23T07:28:50.850Z,1015.63
2018-01-23T07:29:50.870Z,1015.64
2018-01-23T07:30:50.881Z,1015.71
2018-01-23T07:31:50.895Z,1015.74
2018-01-23T07:32:50.902Z,1015.7
2018-01-23T07:33:50.916Z,1015.72
2018-01-23T07:34:50.936Z,1015.74
2018-01-23T07:35:50.944Z,1015.78
2018-01-23T07:36:50.957Z,1015.82
2018-01-23T07:37:51.021Z,1015.83
2018-01-23T07:38:50.987Z,1015.85
2018-01-23T07:39:50.999Z,1015.95
2018-01-23T07:41:51.026Z,1015.98
2018-01-23T07:42:51.039Z,1016.09
2018-01-23T07:43:51.052Z,1016.12
2018-01-23T07:44:51.073Z,1016.16
2018-01-23T07:45:51.087Z,1016.16
2018-01-23T07:46:51.093Z,1016.16
2018-01-23T07:47:51.108Z,1016.18
2018-01-23T07:48:51.121Z,1016.19
2018-01-23T07:49:51.141Z,1016.17
2018-01-23T07:50:51.153Z,1016.1
2018-01-23T07:51:51.163Z,1016.09
2018-01-23T07:52:51.177Z,1016.1
2018-01-23T07:53:51.196Z,1016.13
2018-01-23T07:54:51.203Z,1016.14
2018-01-23T07:55:51.216Z,1016.13
2018-01-23T07:56:51.238Z,1016.14
2018-01-23T07:57:51.246Z,1016.11
2018-01-23T07:58:51.257Z,1016.07
2018-01-23T07:59:51.278Z,1016.05
2018-01-23T08:00:51.291Z,1016.07
2018-01-23T08:01:51.313Z,1016.1
2018-01-23T08:02:51.312Z,1016.13
2018-01-23T08:03:51.333Z,1016.13
2018-01-23T08:04:51.340Z,1016.13
2018-01-23T08:05:51.359Z,1016.19
2018-01-23T08:06:51.374Z,1016.25
2018-01-23T08:07:51.381Z,1016.36
2018-01-23T08:08:51.394Z,1016.38
2018-01-23T08:09:51.407Z,1016.43
2018-01-23T08:10:51.423Z,1016.46
2018-01-23T08:11:51.434Z,1016.46
2018-01-23T08:13:51.462Z,1016.4
2018-01-23T08:14:51.484Z,1016.39
2018-01-23T08:15:51.495Z,1016.39
2018-01-23T08:16:51.504Z,1016.37
2018-01-23T08:17:51.518Z,1016.4
2018-01-23T08:18:51.532Z,1016.37
2018-01-23T08:19:51.544Z,1016.37
2018-01-23T08:20:51.565Z,1016.38
2018-01-23T08:21:51.573Z,1016.36
2018-01-23T08:22:51.585Z,1016.4
2018-01-23T08:23:51.600Z,1016.44
2018-01-23T08:24:51.613Z,1016.42
2018-01-23T08:25:51.628Z,1016.37
2018-01-23T08:26:51.642Z,1016.33
2018-01-23T08:27:51.755Z,1016.35
2018-01-23T08:29:51.684Z,1016.43
2018-01-23T08:30:51.695Z,1016.41
2018-01-23T08:31:51.717Z,1016.46
2018-01-23T08:32:51.731Z,1016.48
2018-01-23T08:33:51.744Z,1016.56
2018-01-23T08:34:51.752Z,1016.57
2018-01-23T08:35:51.771Z,1016.58
2018-01-23T08:36:51.782Z,1016.61
2018-01-23T08:37:51.800Z,1016.6
2018-01-23T08:38:51.807Z,1016.63
2018-01-23T08:39:51.871Z,1016.61
2018-01-23T08:40:51.835Z,1016.6
2018-01-23T08:41:51.848Z,1016.59
2018-01-23T08:42:51.862Z,1016.58
2018-01-23T08:43:51.978Z,1016.59
2018-01-23T08:45:51.904Z,1016.68
2018-01-23T08:46:51.925Z,1016.67
2018-01-23T08:47:51.939Z,1016.68
2018-01-23T08:48:51.945Z,1016.68
2018-01-23T08:49:51.960Z,1016.73
2018-01-23T08:50:51.981Z,1016.75
2018-01-23T08:51:51.987Z,1016.75
2018-01-23T08:52:52.008Z,1016.77
2018-01-23T08:53:52.015Z,1016.76
2018-01-23T08:54:52.029Z,1016.78
2018-01-23T08:55:52.049Z,1016.79
2018-01-23T08:56:52.058Z,1016.78
2018-01-23T08:57:52.071Z,1016.83
2018-01-23T08:58:52.092Z,1016.82
2018-01-23T08:59:52.101Z,1016.83
2018-01-23T09:01:52.127Z,1016.87
2018-01-23T09:02:52.140Z,1016.89
2018-01-23T09:03:52.155Z,1016.96
2018-01-23T09:04:52.168Z,1016.97
2018-01-23T09:05:52.184Z,1016.98
2018-01-23T09:06:52.303Z,1016.99
2018-01-23T09:07:52.212Z,1017.05
2018-01-23T09:08:52.231Z,1017.05
2018-01-23T09:09:52.240Z,1017.09
2018-01-23T09:10:52.253Z,1017.08
2018-01-23T09:11:52.269Z,1017.07
2018-01-23T09:12:52.281Z,1017.1
2018-01-23T09:13:52.295Z,1017.14
2018-01-23T09:14:52.315Z,1017.12
2018-01-23T09:16:52.338Z,1017.13
2018-01-23T09:17:52.352Z,1017.14
2018-01-23T09:18:52.372Z,1017.15
2018-01-23T09:19:52.381Z,1017.13
2018-01-23T09:20:52.401Z,1017.09
2018-01-23T09:21:52.409Z,1017.16
2018-01-23T09:22:52.429Z,1017.09
2018-01-23T09:23:52.444Z,1017.12
2018-01-23T09:24:52.456Z,1017.14
2018-01-23T09:25:52.470Z,1017.11
2018-01-23T09:26:52.480Z,1017.15
2018-01-23T09:27:52.507Z,1017.22
2018-01-23T09:28:52.507Z,1017.22
2018-01-23T09:29:52.522Z,1017.28
2018-01-23T09:30:52.537Z,1017.32
2018-01-23T09:31:52.556Z,1017.32
2018-01-23T09:32:52.563Z,1017.33
2018-01-23T09:33:52.578Z,1017.27
2018-01-23T09:34:52.598Z,1017.31
2018-01-23T09:35:52.606Z,1017.31
2018-01-23T09:36:52.627Z,1017.35
2018-01-23T09:37:52.635Z,1017.32
2018-01-23T09:38:52.649Z,1017.3
2018-01-23T09:39:52.663Z,1017.3
2018-01-23T09:40:52.678Z,1017.34
2018-01-23T09:41:52.692Z,1017.38
2018-01-23T09:42:52.706Z,1017.4
2018-01-23T09:43:52.720Z,1017.35
2018-01-23T09:44:52.734Z,1017.38
2018-01-23T09:45:52.757Z,1017.38
2018-01-23T09:46:52.770Z,1017.38
2018-01-23T09:48:52.800Z,1017.43
2018-01-23T09:49:52.814Z,1017.45
2018-01-23T09:50:52.822Z,1017.47
2018-01-23T09:51:52.843Z,1017.49
2018-01-23T09:52:52.857Z,1017.48
2018-01-23T09:53:52.867Z,1017.53
2018-01-23T09:54:52.891Z,1017.51
2018-01-23T09:55:52.901Z,1017.53
2018-01-23T09:56:52.911Z,1017.55
2018-01-23T09:57:52.930Z,1017.56
2018-01-23T09:58:52.945Z,1017.63
2018-01-23T09:59:52.953Z,1017.57
2018-01-23T10:00:52.967Z,1017.6
2018-01-23T10:01:52.983Z,1017.58
2018-01-23T10:02:52.997Z,1017.62
2018-01-23T10:04:53.027Z,1017.65
2018-01-23T10:05:53.048Z,1017.65
2018-01-23T10:06:53.063Z,1017.66
2018-01-23T10:07:53.171Z,1017.65
2018-01-23T10:08:53.096Z,1017.7
2018-01-23T10:09:53.099Z,1017.73
2018-01-23T10:10:53.116Z,1017.73
2018-01-23T10:11:53.130Z,1017.67
2018-01-23T10:12:53.151Z,1017.66
2018-01-23T10:13:53.260Z,1017.68
2018-01-23T10:14:53.181Z,1017.7
2018-01-23T10:15:53.190Z,1017.7
2018-01-23T10:16:53.203Z,1017.75
2018-01-23T10:17:53.219Z,1017.77
2018-01-23T10:18:53.234Z,1017.77
2018-01-23T10:20:53.271Z,1017.8
2018-01-23T10:21:53.279Z,1017.84
2018-01-23T10:22:53.294Z,1017.83
2018-01-23T10:23:53.309Z,1017.89
2018-01-23T10:24:53.331Z,1017.9
2018-01-23T10:25:53.339Z,1017.89
2018-01-23T10:26:53.354Z,1017.88
2018-01-23T10:27:53.375Z,1017.89
2018-01-23T10:28:53.384Z,1017.9
2018-01-23T10:29:53.398Z,1017.88
2018-01-23T10:30:53.416Z,1017.84
2018-01-23T10:31:53.428Z,1017.85
2018-01-23T10:32:53.451Z,1017.86
2018-01-23T10:33:53.466Z,1017.79
2018-01-23T10:34:53.473Z,1017.77
2018-01-23T10:36:53.512Z,1017.76
2018-01-23T10:37:53.519Z,1017.78
2018-01-23T10:38:53.541Z,1017.75
2018-01-23T10:39:53.556Z,1017.75
2018-01-23T10:40:53.571Z,1017.74
2018-01-23T10:41:53.586Z,1017.73
2018-01-23T10:42:53.595Z,1017.7
2018-01-23T10:43:53.610Z,1017.72
2018-01-23T10:44:53.627Z,1017.71
2018-01-23T10:45:53.647Z,1017.74
2018-01-23T10:46:53.656Z,1017.79
2018-01-23T10:47:53.679Z,1017.77
2018-01-23T10:48:53.687Z,1017.78
2018-01-23T10:49:53.702Z,1017.76
2018-01-23T10:51:53.741Z,1017.82
2018-01-23T10:52:53.749Z,1017.84
2018-01-23T10:53:53.765Z,1017.79
2018-01-23T10:54:53.787Z,1017.85
2018-01-23T10:55:53.796Z,1017.83
2018-01-23T10:56:53.817Z,1017.81
2018-01-23T10:57:53.833Z,1017.8
2018-01-23T10:58:53.849Z,1017.75
2018-01-23T10:59:53.857Z,1017.73
2018-01-23T11:00:53.873Z,1017.68
2018-01-23T11:01:53.888Z,1017.69
2018-01-23T11:02:53.905Z,1017.7
2018-01-23T11:03:53.919Z,1017.68
2018-01-23T11:04:53.935Z,1017.64
2018-01-23T11:05:53.950Z,1017.67
2018-01-23T11:06:53.965Z,1017.6
2018-01-23T11:07:53.980Z,1017.59
2018-01-23T11:08:53.996Z,1017.62
2018-01-23T11:09:54.118Z,1017.65
2018-01-23T11:10:54.026Z,1017.68
2018-01-23T11:11:54.043Z,1017.71
2018-01-23T11:12:54.064Z,1017.66
2018-01-23T11:13:54.073Z,1017.69
2018-01-23T11:14:54.089Z,1017.65
2018-01-23T11:15:54.205Z,1017.65
2018-01-23T11:16:54.119Z,1017.63
2018-01-23T11:17:54.136Z,1017.64
2018-01-23T11:18:54.156Z,1017.6
2018-01-23T11:19:54.172Z,1017.57
2018-01-23T11:20:54.188Z,1017.56
2018-01-23T11:21:54.197Z,1017.52
2018-01-23T11:23:54.234Z,1017.49
2018-01-23T11:24:54.250Z,1017.51
2018-01-23T11:25:54.258Z,1017.57
2018-01-23T11:26:54.274Z,1017.65
2018-01-23T11:27:54.289Z,1017.67
2018-01-23T11:28:54.315Z,1017.74
2018-01-23T11:29:54.323Z,1017.69
2018-01-23T11:30:54.336Z,1017.7
2018-01-23T11:31:54.358Z,1017.7
2018-01-23T11:32:54.368Z,1017.74
2018-01-23T11:33:54.383Z,1017.76
2018-01-23T11:34:54.399Z,1017.78
2018-01-23T11:35:54.417Z,1017.79
2018-01-23T11:36:54.429Z,1017.75
2018-01-23T11:37:54.450Z,1017.78
2018-01-23T11:39:54.477Z,1017.82
2018-01-23T11:40:54.490Z,1017.86
2018-01-23T11:41:54.513Z,1017.81
2018-01-23T11:42:54.533Z,1017.81
2018-01-23T11:43:54.538Z,1017.82
2018-01-23T11:44:54.553Z,1017.77
2018-01-23T11:45:54.569Z,1017.75
2018-01-23T11:46:54.585Z,1017.74
2018-01-23T11:47:54.599Z,1017.76
2018-01-23T11:48:54.621Z,1017.77
2018-01-23T11:49:54.637Z,1017.74
2018-01-23T11:50:54.653Z,1017.74
2018-01-23T11:51:54.668Z,1017.76
2018-01-23T11:52:54.676Z,1017.73
2018-01-23T11:53:54.692Z,1017.74
2018-01-23T11:55:54.722Z,1017.67
2018-01-23T11:56:54.745Z,1017.7
2018-01-23T11:57:54.761Z,1017.69
2018-01-23T11:58:54.770Z,1017.67
2018-01-23T11:59:54.784Z,1017.7
2018-01-23T12:00:54.800Z,1017.68
2018-01-23T12:01:54.823Z,1017.71
2018-01-23T12:02:54.831Z,1017.73
2018-01-23T12:03:54.854Z,1017.71
2018-01-23T12:04:54.869Z,1017.68
2018-01-23T12:05:54.885Z,1017.7
2018-01-23T12:06:54.900Z,1017.68
2018-01-23T12:07:54.914Z,1017.7
2018-01-23T12:08:54.926Z,1017.69
2018-01-23T12:09:54.941Z,1017.68
2018-01-23T12:11:54.974Z,1017.63
2018-01-23T12:12:54.988Z,1017.61
2018-01-23T12:13:55.006Z,1017.59
2018-01-23T12:14:55.033Z,1017.62
2018-01-23T12:15:55.042Z,1017.62
2018-01-23T12:16:55.051Z,1017.62
2018-01-23T12:17:55.067Z,1017.67
2018-01-23T12:18:55.087Z,1017.67
2018-01-23T12:19:55.099Z,1017.7
2018-01-23T12:20:55.114Z,1017.65
2018-01-23T12:21:55.137Z,1017.64
2018-01-23T12:22:55.150Z,1017.64
2018-01-23T12:23:55.163Z,1017.66
2018-01-23T12:24:55.181Z,1017.67
2018-01-23T12:26:55.218Z,1017.68
2018-01-23T12:27:55.226Z,1017.73
2018-01-23T12:28:55.250Z,1017.75
2018-01-23T12:29:55.264Z,1017.76
2018-01-23T12:30:55.275Z,1017.8
2018-01-23T12:31:55.289Z,1017.79
2018-01-23T12:32:55.313Z,1017.77
2018-01-23T12:33:55.329Z,1017.77
2018-01-23T12:34:55.344Z,1017.77
2018-01-23T12:35:55.354Z,1017.75
2018-01-23T12:36:55.370Z,1017.73
2018-01-23T12:37:55.387Z,1017.71
2018-01-23T12:38:55.402Z,1017.74
2018-01-23T12:39:55.417Z,1017.64
2018-01-23T12:40:55.440Z,1017.63
2018-01-23T12:41:55.509Z,1017.63
2018-01-23T12:42:55.465Z,1017.66
2018-01-23T12:43:55.480Z,1017.61
2018-01-23T12:44:55.496Z,1017.61
2018-01-23T12:45:55.518Z,1017.63
2018-01-23T12:46:55.527Z,1017.64
2018-01-23T12:47:55.550Z,1017.68
2018-01-23T12:48:55.559Z,1017.69